Waldport, OR

5:31 PM PDT on August 27, 2014 (GMT -0700)
1310 SW Corona Ct | Change Station
CLOSE
Current Station
Personal Weather Station
Location: Waldport, OR
Elevation: 56 ft
Nearby Weather Stations

Elev 56 ft 44.42 °N, 124.08 °W | Updated 2 seconds ago

Overcast
Overcast
59.8 °F
Feels Like 59.8 °F
N
0.0
Wind Variable Wind from WNW
Gusts 11.0 mph

Today
High -- | Low -- °F
--% Chance of Precip.
Yesterday
High -- | Low -- °F
Precip. -- in
6:33 AM 8:01 PM
Waxing Crescent, 5% visible
Pressure 30.10 in
Visibility 10.0 miles
Clouds Mostly Cloudy 300 ft
Dew Point 39 °F
Humidity 46%
Rainfall 0.00 in
Snow Depth Not available.
UV 1 out of 12
Pollen 3.50 out of 12
Air Quality Not available.
Flu Activity Not available.
METAR KONP 280015Z AUTO 34015KT 10SM BKN003 16/13 A3010 RMK AO2

More Conditions Fewer Conditions

Pressure 30.10 in
Visibility 10.0 miles
Clouds Mostly Cloudy 300 ft
Dew Point 39 °F
Humidity 46%
Rainfall 0.00 in
Snow Depth Not available.
UV 1 out of 12
Pollen 3.50 out of 12
Air Quality Not available.
Flu Activity Not available.
METAR KONP 280015Z AUTO 34015KT 10SM BKN003 16/13 A3010 RMK AO2

More Conditions Fewer Conditions

10-Day Weather Forecast

Almanac

Astronomy

Aug. 27, 2014 Rise Set
Actual Time 6:33 AM PDT 8:01 PM PDT
Civil Twilight 6:02 AM PDT 8:31 PM PDT
Nautical Twilight 5:26 AM PDT 9:08 PM PDT
Astronomical Twilight 4:46 AM PDT 9:47 PM PDT
Moon 8:41 AM PDT (8/27) 8:49 PM PDT (8/27)
Length of Visible Light 14h 28m
Length of Day
13h 27m
Tomorrow will be 2m 55s shorter.
Waxing Crescent, 5% of the Moon is Illuminated
Today
Waxing Crescent
Sep 2
First Quarter
Sep 8
Full
Sep 15
Last Quarter
Sep 24
New

Today's Extremes

State Highs State Lows

Community

WunderPhotos

Upload Photos

1,747,836 photos uploaded!

Nearby

Snow Depth

Station Depth Elevation
Seine Creek 0 in 2000 ft
Daly Lake 0 in 3600 ft
Roaring River 0 in 4900 ft
Peavine Ridge 4 in 3500 ft
Three Creeks Meadow 0 in 5650 ft

Earthquake Activity

City Distance Mag. Time & Date
Waldport, Oregon 86 miles 2.5 10:59 PM PDT
2014-08-25
Minimum magnitude displayed is 2.5.

Coastal Water Temperatures

Place Temperature
South Beach, OR 53.1 °F
Charleston, OR 51.1 °F

Nearby Weather Stations